createdAt,value
2023-03-08T00:02:01.223Z,96710.31
2023-03-08T00:04:27.709Z,96706.13
2023-03-08T00:06:54.348Z,96710.31
2023-03-08T00:09:20.759Z,96705.88
2023-03-08T00:11:47.188Z,96698.19
2023-03-08T00:14:13.582Z,96708.72
2023-03-08T00:16:39.988Z,96704.47
2023-03-08T00:19:06.424Z,96704.78
2023-03-08T00:21:32.848Z,96695.88
2023-03-08T00:23:59.239Z,96681.34
2023-03-08T00:26:25.725Z,96682.22
2023-03-08T00:28:53.015Z,96674.75
2023-03-08T00:31:19.644Z,96675.13
2023-03-08T00:33:46.191Z,96680.09
2023-03-08T00:36:17.468Z,96667.00
2023-03-08T00:38:44.655Z,96683.22
2023-03-08T00:41:14.272Z,96679.03
2023-03-08T00:43:42.361Z,96693.94
2023-03-08T00:46:09.671Z,96692.75
2023-03-08T00:48:36.204Z,96697.00
2023-03-08T00:51:02.683Z,96690.13
2023-03-08T00:53:29.878Z,96687.34
2023-03-08T00:55:57.848Z,96683.66
2023-03-08T00:58:26.514Z,96671.22
2023-03-08T01:00:53.380Z,96669.06
2023-03-08T01:03:21.825Z,96686.03
2023-03-08T01:05:50.617Z,96684.00
2023-03-08T01:08:18.382Z,96660.56
2023-03-08T01:10:49.866Z,96664.97
2023-03-08T01:13:17.150Z,96670.50
2023-03-08T01:15:43.890Z,96654.97
2023-03-08T01:18:10.748Z,96644.94
2023-03-08T01:20:37.267Z,96645.59
2023-03-08T01:23:03.864Z,96639.44
2023-03-08T01:25:30.720Z,96649.25
2023-03-08T01:27:57.180Z,96648.41
2023-03-08T01:30:24.142Z,96643.25
2023-03-08T01:32:50.709Z,96644.28
2023-03-08T01:35:17.861Z,96630.59
2023-03-08T01:37:53.607Z,96636.84
2023-03-08T01:40:21.369Z,96617.78
2023-03-08T01:42:47.973Z,96625.53
2023-03-08T01:45:53.089Z,96622.75
2023-03-08T01:48:23.599Z,96628.75
2023-03-08T01:50:58.756Z,96627.13
2023-03-08T01:53:25.688Z,96613.28
2023-03-08T01:55:52.782Z,96619.06
2023-03-08T01:58:19.373Z,96605.19
2023-03-08T02:00:45.839Z,96612.28
2023-03-08T02:03:12.459Z,96610.38
2023-03-08T02:05:41.929Z,96602.56
2023-03-08T02:08:15.044Z,96601.22
2023-03-08T02:10:43.556Z,96592.28
2023-03-08T02:13:11.299Z,96587.47
2023-03-08T02:15:41.157Z,96589.50
2023-03-08T02:18:07.743Z,96566.97
2023-03-08T02:20:36.731Z,96584.81
2023-03-08T02:23:12.642Z,96574.28
2023-03-08T02:25:47.339Z,96577.31
2023-03-08T02:28:13.846Z,96566.81
2023-03-08T02:30:40.436Z,96570.84
2023-03-08T02:33:07.594Z,96560.06
2023-03-08T02:35:38.583Z,96560.25
2023-03-08T02:38:05.052Z,96566.97
2023-03-08T02:40:31.512Z,96565.56
2023-03-08T02:42:57.967Z,96557.03
2023-03-08T02:45:24.477Z,96562.63
2023-03-08T02:47:50.939Z,96557.09
2023-03-08T02:50:18.426Z,96557.59
2023-03-08T02:52:44.906Z,96554.69
2023-03-08T02:55:11.364Z,96557.91
2023-03-08T02:57:37.848Z,96553.28
2023-03-08T03:00:06.386Z,96546.94
2023-03-08T03:02:33.879Z,96555.56
2023-03-08T03:05:00.388Z,96545.53
2023-03-08T03:07:27.668Z,96551.38
2023-03-08T03:09:54.732Z,96539.00
2023-03-08T03:12:21.563Z,96533.72
2023-03-08T03:14:48.093Z,96538.34
2023-03-08T03:17:15.182Z,96546.34
2023-03-08T03:19:41.731Z,96551.91
2023-03-08T03:22:08.241Z,96536.25
2023-03-08T03:24:37.409Z,96534.88
2023-03-08T03:27:05.321Z,96525.44
2023-03-08T03:29:34.494Z,96509.63
2023-03-08T03:32:11.042Z,96512.41
2023-03-08T03:34:37.645Z,96509.16
2023-03-08T03:37:04.547Z,96508.41
2023-03-08T03:39:34.687Z,96491.41
2023-03-08T03:42:02.157Z,96504.72
2023-03-08T03:44:30.887Z,96505.53
2023-03-08T03:46:58.208Z,96506.25
2023-03-08T03:49:27.210Z,96482.19
2023-03-08T03:51:53.675Z,96490.00
2023-03-08T03:54:24.543Z,96485.97
2023-03-08T03:56:51.333Z,96495.28
2023-03-08T03:59:21.583Z,96494.13
2023-03-08T04:01:48.595Z,96498.91
2023-03-08T04:04:21.618Z,96487.94
2023-03-08T04:06:49.011Z,96490.72
2023-03-08T04:09:18.882Z,96488.31
2023-03-08T04:11:52.365Z,96482.69
2023-03-08T04:14:21.797Z,96481.09
2023-03-08T04:16:49.754Z,96469.16
2023-03-08T04:19:26.637Z,96470.56
2023-03-08T04:21:56.373Z,96468.63
2023-03-08T04:24:27.300Z,96458.16
2023-03-08T04:26:57.826Z,96448.88
2023-03-08T04:29:24.341Z,96460.94
2023-03-08T04:31:51.013Z,96455.03
2023-03-08T04:34:19.642Z,96447.56
2023-03-08T04:36:49.101Z,96435.19
2023-03-08T04:39:16.398Z,96430.75
2023-03-08T04:41:42.837Z,96418.44
2023-03-08T04:44:22.395Z,96428.88
2023-03-08T04:46:51.763Z,96425.81
2023-03-08T04:49:26.051Z,96418.31
2023-03-08T04:51:58.083Z,96421.88
2023-03-08T04:54:25.031Z,96417.38
2023-03-08T04:56:58.817Z,96417.38
2023-03-08T04:59:25.654Z,96430.94
2023-03-08T05:01:54.920Z,96426.69
2023-03-08T05:04:22.798Z,96429.13
2023-03-08T05:06:49.226Z,96423.91
2023-03-08T05:09:20.926Z,96407.06
2023-03-08T05:11:50.728Z,96419.44
2023-03-08T05:14:17.191Z,96418.31
2023-03-08T05:16:43.934Z,96410.53
2023-03-08T05:19:11.491Z,96386.69
2023-03-08T05:21:45.502Z,96401.91
2023-03-08T05:24:12.797Z,96406.28
2023-03-08T05:26:39.514Z,96355.34
2023-03-08T05:29:06.754Z,96371.44
2023-03-08T05:31:36.556Z,96390.78
2023-03-08T05:34:05.366Z,96383.16
2023-03-08T05:36:36.519Z,96379.38
2023-03-08T05:39:06.755Z,96373.28
2023-03-08T05:41:41.413Z,96360.66
2023-03-08T05:44:08.367Z,96362.13
2023-03-08T05:46:38.223Z,96353.69
2023-03-08T05:49:06.529Z,96336.38
2023-03-08T05:51:35.056Z,96337.13
2023-03-08T05:54:02.142Z,96328.69
2023-03-08T05:56:31.140Z,96318.56
2023-03-08T05:59:05.598Z,96308.84
2023-03-08T06:01:32.522Z,96302.84
2023-03-08T06:04:11.028Z,96316.06
2023-03-08T06:06:40.225Z,96308.84
2023-03-08T06:09:07.911Z,96308.78
2023-03-08T06:11:37.565Z,96301.91
2023-03-08T06:14:05.171Z,96294.34
2023-03-08T06:16:35.106Z,96290.81
2023-03-08T06:19:02.342Z,96294.94
2023-03-08T06:21:29.819Z,96307.41
2023-03-08T06:24:00.140Z,96295.94
2023-03-08T06:26:26.546Z,96304.59
2023-03-08T06:28:53.258Z,96314.53
2023-03-08T06:31:20.744Z,96310.50
2023-03-08T06:33:47.445Z,96309.84
2023-03-08T06:36:21.363Z,96310.50
2023-03-08T06:38:49.829Z,96304.91
2023-03-08T06:41:17.905Z,96314.38
2023-03-08T06:43:47.594Z,96307.53
2023-03-08T06:46:20.183Z,96307.84
2023-03-08T06:48:48.158Z,96301.88
2023-03-08T06:51:16.624Z,96291.78
2023-03-08T06:53:44.942Z,96285.97
2023-03-08T06:56:15.515Z,96285.25
2023-03-08T06:58:42.877Z,96277.84
2023-03-08T07:01:09.870Z,96276.34
2023-03-08T07:03:36.788Z,96273.91
2023-03-08T07:06:05.946Z,96258.78
2023-03-08T07:08:32.728Z,96242.16
2023-03-08T07:10:59.947Z,96256.56
2023-03-08T07:13:26.789Z,96254.56
2023-03-08T07:15:53.334Z,96240.13
2023-03-08T07:18:20.359Z,96247.75
2023-03-08T07:20:57.530Z,96244.00
2023-03-08T07:23:24.727Z,96226.31
2023-03-08T07:25:51.394Z,96212.09
2023-03-08T07:28:19.175Z,96210.34
2023-03-08T07:30:50.425Z,96220.03
2023-03-08T07:33:18.731Z,96197.44
2023-03-08T07:35:45.200Z,96206.50
2023-03-08T07:38:12.441Z,96190.03
2023-03-08T07:40:39.161Z,96179.19
2023-03-08T07:43:06.253Z,96187.34
2023-03-08T07:46:05.330Z,96179.66
2023-03-08T07:48:32.569Z,96178.34
2023-03-08T07:51:07.132Z,96172.00
2023-03-08T07:53:33.987Z,96173.00
2023-03-08T07:56:00.597Z,96166.00
2023-03-08T07:58:28.131Z,96147.63
2023-03-08T08:00:54.557Z,96153.59
2023-03-08T08:03:21.372Z,96153.84
2023-03-08T08:05:48.132Z,96137.56
2023-03-08T08:08:14.790Z,96126.16
2023-03-08T08:10:42.297Z,96130.97
2023-03-08T08:13:09.491Z,96120.72
2023-03-08T08:15:35.931Z,96123.22
2023-03-08T08:18:02.439Z,96111.53
2023-03-08T08:20:28.929Z,96106.00
2023-03-08T08:22:55.377Z,96104.19
2023-03-08T08:25:22.071Z,96086.25
2023-03-08T08:27:49.949Z,96083.06
2023-03-08T08:30:16.565Z,96077.09
2023-03-08T08:32:43.073Z,96075.84
2023-03-08T08:35:09.785Z,96072.97
2023-03-08T08:37:36.175Z,96067.97
2023-03-08T08:40:04.760Z,96067.69
2023-03-08T08:42:31.206Z,96054.97
2023-03-08T08:44:57.607Z,96061.22
2023-03-08T08:47:24.085Z,96051.25
2023-03-08T08:49:52.344Z,96027.34
2023-03-08T08:52:19.144Z,96049.59
2023-03-08T08:54:45.717Z,96056.38
2023-03-08T08:57:12.166Z,96058.00
2023-03-08T08:59:38.614Z,96055.50
2023-03-08T09:02:06.184Z,96053.84
2023-03-08T09:04:32.768Z,96046.91
2023-03-08T09:06:59.237Z,96044.88
2023-03-08T09:09:26.788Z,96037.22
2023-03-08T09:11:55.577Z,96034.97
2023-03-08T09:14:23.391Z,96013.94
2023-03-08T09:16:50.168Z,96019.19
2023-03-08T09:19:16.773Z,96020.22
2023-03-08T09:21:43.327Z,96015.41
2023-03-08T09:24:11.668Z,96004.44
2023-03-08T09:26:38.273Z,95993.69
2023-03-08T09:29:05.523Z,95999.06
2023-03-08T09:31:34.088Z,96001.53
2023-03-08T09:34:00.685Z,95991.84
2023-03-08T09:36:29.971Z,96000.22
2023-03-08T09:38:56.445Z,95990.94
2023-03-08T09:41:44.549Z,95985.13
2023-03-08T09:44:18.060Z,95983.28
2023-03-08T09:46:54.018Z,95992.00
2023-03-08T09:49:28.047Z,95983.97
2023-03-08T09:52:04.436Z,95979.06
2023-03-08T09:54:34.947Z,95969.53
2023-03-08T09:57:06.749Z,95962.81
2023-03-08T09:59:41.002Z,95962.78
2023-03-08T10:02:34.922Z,95968.41
2023-03-08T10:05:14.368Z,95958.78
2023-03-08T10:08:05.017Z,95952.00
2023-03-08T10:11:00.404Z,95957.63
2023-03-08T10:13:31.126Z,95943.09
2023-03-08T10:16:25.058Z,95937.63
2023-03-08T10:18:58.633Z,95935.38
2023-03-08T10:21:26.664Z,95935.88
2023-03-08T10:24:01.956Z,95936.94
2023-03-08T10:26:29.135Z,95932.94
2023-03-08T10:28:55.630Z,95930.50
2023-03-08T10:31:30.875Z,95931.50
2023-03-08T10:34:07.092Z,95928.44
2023-03-08T10:36:33.574Z,95929.69
2023-03-08T10:39:08.797Z,95915.56
2023-03-08T10:41:44.777Z,95904.34
2023-03-08T10:44:29.650Z,95899.41
2023-03-08T10:46:56.171Z,95889.25
2023-03-08T10:49:26.923Z,95883.22
2023-03-08T10:52:00.351Z,95895.81
2023-03-08T10:54:28.486Z,95892.88
2023-03-08T10:56:59.001Z,95898.84
2023-03-08T10:59:34.606Z,95890.88
2023-03-08T11:02:12.921Z,95906.44
2023-03-08T11:04:51.001Z,95891.50
2023-03-08T11:07:25.905Z,95895.09
2023-03-08T11:10:03.570Z,95893.81
2023-03-08T11:12:30.029Z,95893.81
2023-03-08T11:14:56.483Z,95890.19
2023-03-08T11:17:39.175Z,95893.88
2023-03-08T11:20:28.344Z,95891.47
2023-03-08T11:23:18.266Z,95874.28
2023-03-08T11:25:48.481Z,95891.13
2023-03-08T11:28:44.606Z,95890.72
2023-03-08T11:31:20.860Z,95896.25
2023-03-08T11:33:59.501Z,95890.53
2023-03-08T11:36:38.542Z,95905.22
2023-03-08T11:39:19.915Z,95907.13
2023-03-08T11:42:07.130Z,95887.41
2023-03-08T11:44:36.567Z,95888.69
2023-03-08T11:47:30.901Z,95899.25
2023-03-08T11:50:21.902Z,95889.69
2023-03-08T11:53:09.292Z,95883.84
2023-03-08T11:56:01.962Z,95887.41
2023-03-08T11:58:36.430Z,95870.03
2023-03-08T12:01:11.926Z,95865.53
2023-03-08T12:03:43.726Z,95873.78
2023-03-08T12:06:27.936Z,95876.63
2023-03-08T12:09:01.590Z,95882.47
2023-03-08T12:11:32.647Z,95877.47
2023-03-08T12:14:09.493Z,95884.34
2023-03-08T12:16:40.713Z,95869.44
2023-03-08T12:19:30.301Z,95874.72
2023-03-08T12:22:18.282Z,95872.50
2023-03-08T12:24:56.497Z,95864.53
2023-03-08T12:27:38.813Z,95865.91
2023-03-08T12:30:10.976Z,95867.84
2023-03-08T12:32:40.135Z,95867.16
2023-03-08T12:35:38.135Z,95857.75
2023-03-08T12:38:25.842Z,95846.84
2023-03-08T12:40:54.493Z,95852.28
2023-03-08T12:43:20.895Z,95860.03
2023-03-08T12:45:59.623Z,95853.59
2023-03-08T12:48:28.565Z,95848.13
2023-03-08T12:51:27.270Z,95869.09
2023-03-08T12:53:53.706Z,95862.75
2023-03-08T12:56:36.561Z,95867.25
2023-03-08T12:59:14.942Z,95870.16
2023-03-08T13:01:47.148Z,95855.41
2023-03-08T13:04:39.737Z,95869.56
2023-03-08T13:07:39.451Z,95867.94
2023-03-08T13:10:21.134Z,95875.38
2023-03-08T13:13:02.872Z,95870.63
2023-03-08T13:15:29.426Z,95876.16
2023-03-08T13:18:00.386Z,95871.09
2023-03-08T13:20:41.359Z,95889.94
2023-03-08T13:23:26.026Z,95897.63
2023-03-08T13:26:18.035Z,95906.88
2023-03-08T13:28:48.052Z,95909.25
2023-03-08T13:31:18.684Z,95912.66
2023-03-08T13:33:53.920Z,95901.56
2023-03-08T13:36:29.015Z,95890.22
2023-03-08T13:38:57.572Z,95858.13
2023-03-08T13:41:42.722Z,95864.38
2023-03-08T13:44:18.343Z,95848.28
2023-03-08T13:46:48.430Z,95836.38
2023-03-08T13:49:29.900Z,95853.13
2023-03-08T13:51:59.608Z,95864.50
2023-03-08T13:54:30.390Z,95848.34
2023-03-08T13:57:02.815Z,95859.78
2023-03-08T13:59:29.958Z,95853.44
2023-03-08T14:01:57.462Z,95858.75
2023-03-08T14:04:29.487Z,95876.97
2023-03-08T14:06:59.117Z,95869.78
2023-03-08T14:09:26.978Z,95861.34
2023-03-08T14:11:59.616Z,95843.84
2023-03-08T14:14:32.604Z,95838.53
2023-03-08T14:16:59.713Z,95826.56
2023-03-08T14:19:29.937Z,95837.44
2023-03-08T14:21:59.911Z,95825.81
2023-03-08T14:24:29.688Z,95834.59
2023-03-08T14:27:00.553Z,95841.22
2023-03-08T14:29:32.565Z,95844.16
2023-03-08T14:32:13.132Z,95842.84
2023-03-08T14:34:49.388Z,95843.41
2023-03-08T14:37:23.914Z,95846.56
2023-03-08T14:39:56.884Z,95841.28
2023-03-08T14:42:35.553Z,95843.69
2023-03-08T14:45:06.748Z,95833.09
2023-03-08T14:47:35.443Z,95829.63
2023-03-08T14:50:06.862Z,95834.16
2023-03-08T14:52:36.889Z,95821.44
2023-03-08T14:55:18.745Z,95824.06
2023-03-08T14:57:45.225Z,95814.81
2023-03-08T15:00:14.567Z,95826.25
2023-03-08T15:02:42.153Z,95815.09
2023-03-08T15:05:28.432Z,95811.66
2023-03-08T15:07:56.515Z,95811.66
2023-03-08T15:10:33.723Z,95814.59
2023-03-08T15:13:00.691Z,95805.53
2023-03-08T15:15:27.152Z,95815.91
2023-03-08T15:17:53.660Z,95815.91
2023-03-08T15:20:20.784Z,95799.72
2023-03-08T15:22:51.495Z,95817.47
2023-03-08T15:25:27.802Z,95805.81
2023-03-08T15:27:54.284Z,95811.94
2023-03-08T15:30:27.645Z,95808.72
2023-03-08T15:32:55.071Z,95808.19
2023-03-08T15:35:22.826Z,95811.66
2023-03-08T15:37:49.965Z,95824.13
2023-03-08T15:40:23.476Z,95821.22
2023-03-08T15:42:50.049Z,95848.81
2023-03-08T15:45:16.471Z,95828.63
2023-03-08T15:47:43.259Z,95828.63
2023-03-08T15:50:17.965Z,95836.59
2023-03-08T15:52:45.181Z,95830.22
2023-03-08T15:55:13.625Z,95841.88
2023-03-08T15:57:41.020Z,95836.84
2023-03-08T16:00:10.462Z,95838.72
2023-03-08T16:02:37.906Z,95825.44
2023-03-08T16:05:06.563Z,95842.16
2023-03-08T16:07:33.252Z,95842.97
2023-03-08T16:09:59.844Z,95826.53
2023-03-08T16:12:26.644Z,95820.41
2023-03-08T16:14:54.937Z,95832.59
2023-03-08T16:17:21.517Z,95827.03
2023-03-08T16:19:48.046Z,95829.41
2023-03-08T16:22:14.582Z,95833.38
2023-03-08T16:24:40.994Z,95830.22
2023-03-08T16:27:07.476Z,95808.19
2023-03-08T16:29:34.222Z,95797.84
2023-03-08T16:32:00.996Z,95820.66
2023-03-08T16:34:29.317Z,95803.69
2023-03-08T16:36:56.724Z,95806.34
2023-03-08T16:39:24.528Z,95800.00
2023-03-08T16:41:52.330Z,95814.31
2023-03-08T16:44:20.988Z,95823.88
2023-03-08T16:46:47.973Z,95841.09
2023-03-08T16:49:15.999Z,95831.28
2023-03-08T16:51:43.062Z,95821.97
2023-03-08T16:54:13.317Z,95824.09
2023-03-08T16:56:42.521Z,95804.75
2023-03-08T16:59:12.410Z,95822.78
2023-03-08T17:01:39.738Z,95816.94
2023-03-08T17:04:06.263Z,95825.72
2023-03-08T17:06:33.036Z,95825.97
2023-03-08T17:08:59.635Z,95825.72
2023-03-08T17:11:29.914Z,95820.66
2023-03-08T17:13:59.684Z,95825.44
2023-03-08T17:16:29.748Z,95820.13
2023-03-08T17:18:58.295Z,95828.09
2023-03-08T17:21:24.861Z,95807.94
2023-03-08T17:23:53.434Z,95827.56
2023-03-08T17:26:23.038Z,95821.72
2023-03-08T17:28:51.028Z,95817.47
2023-03-08T17:31:21.101Z,95815.63
2023-03-08T17:33:48.532Z,95817.47
2023-03-08T17:36:15.746Z,95817.47
2023-03-08T17:38:42.590Z,95821.72
2023-03-08T17:41:11.785Z,95813.25
2023-03-08T17:43:41.043Z,95805.81
2023-03-08T17:46:13.747Z,95817.75
2023-03-08T17:48:40.448Z,95820.13
2023-03-08T17:51:09.683Z,95817.47
2023-03-08T17:53:37.804Z,95819.59
2023-03-08T17:56:13.410Z,95829.41
2023-03-08T17:58:40.268Z,95821.19
2023-03-08T18:01:15.230Z,95833.88
2023-03-08T18:03:42.285Z,95839.72
2023-03-08T18:06:18.339Z,95863.03
2023-03-08T18:08:44.931Z,95855.38
2023-03-08T18:11:11.316Z,95864.66
2023-03-08T18:13:40.317Z,95857.22
2023-03-08T18:16:07.222Z,95845.06
2023-03-08T18:18:33.692Z,95841.31
2023-03-08T18:21:12.081Z,95832.84
2023-03-08T18:23:41.706Z,95828.34
2023-03-08T18:26:10.120Z,95826.75
2023-03-08T18:28:36.554Z,95836.31
2023-03-08T18:31:11.801Z,95841.09
2023-03-08T18:33:38.337Z,95841.88
2023-03-08T18:36:05.077Z,95854.38
2023-03-08T18:38:31.633Z,95861.25
2023-03-08T18:40:58.102Z,95848.28
2023-03-08T18:43:25.354Z,95842.69
2023-03-08T18:45:56.488Z,95841.88
2023-03-08T18:48:24.249Z,95838.72
2023-03-08T18:50:50.787Z,95843.22
2023-03-08T18:53:17.256Z,95831.56
2023-03-08T18:55:54.289Z,95829.69
2023-03-08T18:58:21.230Z,95829.69
2023-03-08T19:00:48.086Z,95845.09
2023-03-08T19:03:14.515Z,95856.22
2023-03-08T19:05:41.121Z,95852.78
2023-03-08T19:08:07.557Z,95842.94
2023-03-08T19:10:33.997Z,95842.94
2023-03-08T19:13:00.505Z,95848.25
2023-03-08T19:15:27.237Z,95862.06
2023-03-08T19:17:58.617Z,95859.38
2023-03-08T19:20:26.563Z,95869.47
2023-03-08T19:22:53.414Z,95853.56
2023-03-08T19:25:19.807Z,95859.66
2023-03-08T19:27:46.302Z,95849.06
2023-03-08T19:30:12.955Z,95852.75
2023-03-08T19:32:42.157Z,95841.34
2023-03-08T19:35:09.806Z,95837.13
2023-03-08T19:37:36.286Z,95824.63
2023-03-08T19:40:05.311Z,95813.50
2023-03-08T19:42:31.843Z,95819.31
2023-03-08T19:44:58.437Z,95804.47
2023-03-08T19:47:24.854Z,95834.19
2023-03-08T19:49:51.649Z,95838.16
2023-03-08T19:52:18.186Z,95836.84
2023-03-08T19:54:46.184Z,95842.44
2023-03-08T19:57:12.944Z,95842.44
2023-03-08T19:59:39.505Z,95832.59
2023-03-08T20:02:08.633Z,95840.31
2023-03-08T20:04:36.448Z,95836.56
2023-03-08T20:07:04.722Z,95840.31
2023-03-08T20:09:31.435Z,95838.44
2023-03-08T20:11:59.146Z,95837.66
2023-03-08T20:14:29.212Z,95831.03
2023-03-08T20:16:56.339Z,95827.03
2023-03-08T20:19:22.873Z,95825.97
2023-03-08T20:21:49.531Z,95828.88
2023-03-08T20:24:18.421Z,95832.34
2023-03-08T20:26:45.374Z,95828.09
2023-03-08T20:29:11.962Z,95828.09
2023-03-08T20:31:38.415Z,95821.44
2023-03-08T20:34:04.890Z,95835.50
2023-03-08T20:36:31.477Z,95826.22
2023-03-08T20:38:58.426Z,95823.84
2023-03-08T20:41:25.708Z,95830.72
2023-03-08T20:43:55.350Z,95835.50
2023-03-08T20:46:28.065Z,95842.94
2023-03-08T20:48:54.581Z,95829.94
2023-03-08T20:51:22.007Z,95834.19
2023-03-08T20:53:50.680Z,95844.00
2023-03-08T20:56:19.831Z,95834.47
2023-03-08T20:58:46.721Z,95831.53
2023-03-08T21:01:16.413Z,95822.53
2023-03-08T21:03:43.750Z,95816.44
2023-03-08T21:06:15.018Z,95798.91
2023-03-08T21:08:42.047Z,95775.31
2023-03-08T21:11:08.955Z,95793.59
2023-03-08T21:13:35.396Z,95805.03
2023-03-08T21:16:07.518Z,95763.09
2023-03-08T21:18:34.017Z,95807.69
2023-03-08T21:21:01.454Z,95809.00
2023-03-08T21:23:28.022Z,95797.88
2023-03-08T21:25:58.010Z,95809.56
2023-03-08T21:28:24.559Z,95790.72
2023-03-08T21:30:51.419Z,95795.47
2023-03-08T21:33:17.836Z,95794.16
2023-03-08T21:35:44.806Z,95795.25
2023-03-08T21:38:11.253Z,95793.09
2023-03-08T21:40:40.390Z,95793.91
2023-03-08T21:43:07.374Z,95790.97
2023-03-08T21:45:39.040Z,95790.16
2023-03-08T21:48:06.058Z,95800.00
2023-03-08T21:50:32.944Z,95798.41
2023-03-08T21:52:59.531Z,95802.09
2023-03-08T21:55:25.984Z,95790.97
2023-03-08T21:57:52.463Z,95800.00
2023-03-08T22:00:18.910Z,95793.09
2023-03-08T22:02:51.583Z,95786.72
2023-03-08T22:05:18.829Z,95785.91
2023-03-08T22:07:45.295Z,95758.59
2023-03-08T22:10:13.585Z,95764.94
2023-03-08T22:12:42.050Z,95753.50
2023-03-08T22:15:08.926Z,95738.13
2023-03-08T22:17:35.464Z,95741.03
2023-03-08T22:20:01.873Z,95726.44
2023-03-08T22:22:28.307Z,95737.06
2023-03-08T22:24:54.712Z,95729.38
2023-03-08T22:27:22.993Z,95721.94
2023-03-08T22:29:49.945Z,95716.59
2023-03-08T22:32:16.429Z,95710.75
2023-03-08T22:34:43.044Z,95710.75
2023-03-08T22:37:09.467Z,95721.91
2023-03-08T22:39:37.709Z,95722.72
2023-03-08T22:42:04.469Z,95703.84
2023-03-08T22:44:31.232Z,95701.22
2023-03-08T22:46:57.688Z,95696.41
2023-03-08T22:49:24.106Z,95703.84
2023-03-08T22:51:52.257Z,95696.41
2023-03-08T22:54:21.563Z,95695.34
2023-03-08T22:56:49.857Z,95695.31
2023-03-08T22:59:16.720Z,95685.53
2023-03-08T23:01:43.246Z,95677.78
2023-03-08T23:04:12.136Z,95682.06
2023-03-08T23:06:39.026Z,95669.81
2023-03-08T23:09:08.071Z,95694.00
2023-03-08T23:11:36.068Z,95684.94
2023-03-08T23:14:03.355Z,95709.09
2023-03-08T23:16:29.884Z,95705.94
2023-03-08T23:18:56.412Z,95701.19
2023-03-08T23:21:24.869Z,95702.78
2023-03-08T23:23:51.338Z,95702.28
2023-03-08T23:26:21.173Z,95700.16
2023-03-08T23:28:48.052Z,95697.22
2023-03-08T23:31:20.751Z,95699.66
2023-03-08T23:33:48.986Z,95688.75
2023-03-08T23:36:18.553Z,95686.13
2023-03-08T23:38:45.071Z,95673.13
2023-03-08T23:41:12.692Z,95670.47
2023-03-08T23:43:40.358Z,95646.34
2023-03-08T23:46:13.756Z,95665.44
2023-03-08T23:48:40.493Z,95609.03
2023-03-08T23:51:09.811Z,95653.50
2023-03-08T23:53:36.693Z,95651.41
2023-03-08T23:56:04.026Z,95647.13
2023-03-08T23:58:30.772Z,95660.41
